sensor_id;sensor_type;location;lat;lon;timestamp;P1;durP1;ratioP1;P2;durP2;ratioP2
8526;SDS011;4301;48.362;8.478;2023-05-07T00:00:49;5.07;;;2.87;;
8526;SDS011;4301;48.362;8.478;2023-05-07T00:03:16;6.13;;;2.70;;
8526;SDS011;4301;48.362;8.478;2023-05-07T00:05:44;3.63;;;2.50;;
8526;SDS011;4301;48.362;8.478;2023-05-07T00:08:11;4.07;;;2.70;;
8526;SDS011;4301;48.362;8.478;2023-05-07T00:10:38;2.83;;;2.50;;
8526;SDS011;4301;48.362;8.478;2023-05-07T00:13:05;3.00;;;2.80;;
8526;SDS011;4301;48.362;8.478;2023-05-07T00:15:32;3.20;;;2.90;;
8526;SDS011;4301;48.362;8.478;2023-05-07T00:18:00;4.37;;;2.70;;
8526;SDS011;4301;48.362;8.478;2023-05-07T00:20:27;3.03;;;2.83;;
8526;SDS011;4301;48.362;8.478;2023-05-07T00:22:54;21.07;;;2.37;;
8526;SDS011;4301;48.362;8.478;2023-05-07T00:25:21;2.83;;;2.63;;
8526;SDS011;4301;48.362;8.478;2023-05-07T00:27:48;5.53;;;2.53;;
8526;SDS011;4301;48.362;8.478;2023-05-07T00:30:15;2.67;;;2.40;;
8526;SDS011;4301;48.362;8.478;2023-05-07T00:32:42;3.83;;;2.43;;
8526;SDS011;4301;48.362;8.478;2023-05-07T00:35:11;2.80;;;2.60;;
8526;SDS011;4301;48.362;8.478;2023-05-07T00:37:38;2.70;;;2.50;;
8526;SDS011;4301;48.362;8.478;2023-05-07T00:40:06;2.60;;;2.40;;
8526;SDS011;4301;48.362;8.478;2023-05-07T00:42:33;2.83;;;2.60;;
8526;SDS011;4301;48.362;8.478;2023-05-07T00:45:00;3.43;;;3.00;;
8526;SDS011;4301;48.362;8.478;2023-05-07T00:47:28;3.47;;;2.83;;
8526;SDS011;4301;48.362;8.478;2023-05-07T00:49:55;5.50;;;2.97;;
8526;SDS011;4301;48.362;8.478;2023-05-07T00:52:25;6.40;;;2.77;;
8526;SDS011;4301;48.362;8.478;2023-05-07T00:54:52;4.43;;;2.80;;
8526;SDS011;4301;48.362;8.478;2023-05-07T00:57:21;3.63;;;3.17;;
8526;SDS011;4301;48.362;8.478;2023-05-07T00:59:50;3.33;;;2.60;;
8526;SDS011;4301;48.362;8.478;2023-05-07T01:02:18;3.30;;;2.87;;
8526;SDS011;4301;48.362;8.478;2023-05-07T01:04:45;4.03;;;3.00;;
8526;SDS011;4301;48.362;8.478;2023-05-07T01:07:12;3.80;;;3.50;;
8526;SDS011;4301;48.362;8.478;2023-05-07T01:09:40;3.50;;;3.17;;
8526;SDS011;4301;48.362;8.478;2023-05-07T01:12:07;4.10;;;3.20;;
8526;SDS011;4301;48.362;8.478;2023-05-07T01:14:35;3.70;;;2.83;;
8526;SDS011;4301;48.362;8.478;2023-05-07T01:17:02;3.97;;;3.30;;
8526;SDS011;4301;48.362;8.478;2023-05-07T01:19:29;3.97;;;3.17;;
8526;SDS011;4301;48.362;8.478;2023-05-07T01:21:59;3.60;;;3.30;;
8526;SDS011;4301;48.362;8.478;2023-05-07T01:24:31;3.90;;;2.70;;
8526;SDS011;4301;48.362;8.478;2023-05-07T01:26:58;2.80;;;2.60;;
8526;SDS011;4301;48.362;8.478;2023-05-07T01:29:26;3.80;;;2.93;;
8526;SDS011;4301;48.362;8.478;2023-05-07T01:31:54;3.37;;;3.07;;
8526;SDS011;4301;48.362;8.478;2023-05-07T01:34:23;3.40;;;3.10;;
8526;SDS011;4301;48.362;8.478;2023-05-07T01:36:52;3.40;;;3.07;;
8526;SDS011;4301;48.362;8.478;2023-05-07T01:39:23;5.37;;;3.00;;
8526;SDS011;4301;48.362;8.478;2023-05-07T01:41:52;3.40;;;3.10;;
8526;SDS011;4301;48.362;8.478;2023-05-07T01:44:20;3.43;;;3.10;;
8526;SDS011;4301;48.362;8.478;2023-05-07T01:46:48;3.30;;;3.00;;
8526;SDS011;4301;48.362;8.478;2023-05-07T01:49:16;6.53;;;3.30;;
8526;SDS011;4301;48.362;8.478;2023-05-07T01:51:43;5.00;;;3.37;;
8526;SDS011;4301;48.362;8.478;2023-05-07T01:54:10;3.60;;;3.30;;
8526;SDS011;4301;48.362;8.478;2023-05-07T01:56:37;3.13;;;2.93;;
8526;SDS011;4301;48.362;8.478;2023-05-07T01:59:05;2.77;;;2.57;;
8526;SDS011;4301;48.362;8.478;2023-05-07T02:01:32;6.03;;;2.83;;
8526;SDS011;4301;48.362;8.478;2023-05-07T02:03:59;3.07;;;2.77;;
8526;SDS011;4301;48.362;8.478;2023-05-07T02:06:26;2.97;;;2.70;;
8526;SDS011;4301;48.362;8.478;2023-05-07T02:08:53;6.90;;;2.73;;
8526;SDS011;4301;48.362;8.478;2023-05-07T02:11:20;3.00;;;2.70;;
8526;SDS011;4301;48.362;8.478;2023-05-07T02:13:47;4.43;;;3.37;;
8526;SDS011;4301;48.362;8.478;2023-05-07T02:16:16;3.10;;;2.73;;
8526;SDS011;4301;48.362;8.478;2023-05-07T02:18:44;3.20;;;3.00;;
8526;SDS011;4301;48.362;8.478;2023-05-07T02:21:11;3.00;;;2.60;;
8526;SDS011;4301;48.362;8.478;2023-05-07T02:23:38;3.93;;;3.30;;
8526;SDS011;4301;48.362;8.478;2023-05-07T02:26:05;3.10;;;2.80;;
8526;SDS011;4301;48.362;8.478;2023-05-07T02:28:32;3.77;;;3.13;;
8526;SDS011;4301;48.362;8.478;2023-05-07T02:31:00;5.90;;;3.20;;
8526;SDS011;4301;48.362;8.478;2023-05-07T02:33:30;3.13;;;2.80;;
8526;SDS011;4301;48.362;8.478;2023-05-07T02:35:59;3.07;;;2.77;;
8526;SDS011;4301;48.362;8.478;2023-05-07T02:38:32;3.53;;;3.10;;
8526;SDS011;4301;48.362;8.478;2023-05-07T02:41:00;3.47;;;3.17;;
8526;SDS011;4301;48.362;8.478;2023-05-07T02:43:27;5.50;;;3.13;;
8526;SDS011;4301;48.362;8.478;2023-05-07T02:46:01;3.33;;;3.10;;
8526;SDS011;4301;48.362;8.478;2023-05-07T02:48:30;3.23;;;2.90;;
8526;SDS011;4301;48.362;8.478;2023-05-07T02:50:57;3.33;;;3.03;;
8526;SDS011;4301;48.362;8.478;2023-05-07T02:53:24;5.57;;;2.90;;
8526;SDS011;4301;48.362;8.478;2023-05-07T02:55:52;3.20;;;3.00;;
8526;SDS011;4301;48.362;8.478;2023-05-07T02:58:19;3.13;;;2.90;;
8526;SDS011;4301;48.362;8.478;2023-05-07T03:00:46;2.97;;;2.70;;
8526;SDS011;4301;48.362;8.478;2023-05-07T03:03:13;3.67;;;3.30;;
8526;SDS011;4301;48.362;8.478;2023-05-07T03:05:41;3.10;;;2.90;;
8526;SDS011;4301;48.362;8.478;2023-05-07T03:08:08;3.93;;;3.47;;
8526;SDS011;4301;48.362;8.478;2023-05-07T03:10:36;3.60;;;3.10;;
8526;SDS011;4301;48.362;8.478;2023-05-07T03:13:04;3.50;;;3.20;;
8526;SDS011;4301;48.362;8.478;2023-05-07T03:15:31;4.40;;;2.87;;
8526;SDS011;4301;48.362;8.478;2023-05-07T03:17:58;3.23;;;3.00;;
8526;SDS011;4301;48.362;8.478;2023-05-07T03:20:25;2.23;;;2.13;;
8526;SDS011;4301;48.362;8.478;2023-05-07T03:22:53;2.93;;;2.63;;
8526;SDS011;4301;48.362;8.478;2023-05-07T03:25:20;3.80;;;3.10;;
8526;SDS011;4301;48.362;8.478;2023-05-07T03:27:47;3.17;;;2.90;;
8526;SDS011;4301;48.362;8.478;2023-05-07T03:30:15;4.50;;;2.73;;
8526;SDS011;4301;48.362;8.478;2023-05-07T03:32:44;3.10;;;2.60;;
8526;SDS011;4301;48.362;8.478;2023-05-07T03:35:11;2.70;;;2.50;;
8526;SDS011;4301;48.362;8.478;2023-05-07T03:37:38;3.23;;;3.00;;
8526;SDS011;4301;48.362;8.478;2023-05-07T03:40:07;2.87;;;2.67;;
8526;SDS011;4301;48.362;8.478;2023-05-07T03:42:36;3.93;;;2.70;;
8526;SDS011;4301;48.362;8.478;2023-05-07T03:45:03;3.07;;;2.87;;
8526;SDS011;4301;48.362;8.478;2023-05-07T03:47:31;2.90;;;2.70;;
8526;SDS011;4301;48.362;8.478;2023-05-07T03:49:58;3.10;;;2.90;;
8526;SDS011;4301;48.362;8.478;2023-05-07T03:52:24;2.70;;;2.50;;
8526;SDS011;4301;48.362;8.478;2023-05-07T03:54:52;2.70;;;2.50;;
8526;SDS011;4301;48.362;8.478;2023-05-07T03:57:20;3.17;;;2.90;;
8526;SDS011;4301;48.362;8.478;2023-05-07T03:59:47;5.37;;;2.57;;
8526;SDS011;4301;48.362;8.478;2023-05-07T04:02:14;4.77;;;2.33;;
8526;SDS011;4301;48.362;8.478;2023-05-07T04:04:41;3.00;;;2.57;;
8526;SDS011;4301;48.362;8.478;2023-05-07T04:07:08;4.57;;;2.93;;
8526;SDS011;4301;48.362;8.478;2023-05-07T04:09:35;3.03;;;2.70;;
8526;SDS011;4301;48.362;8.478;2023-05-07T04:12:02;4.53;;;2.90;;
8526;SDS011;4301;48.362;8.478;2023-05-07T04:14:30;3.07;;;2.77;;
8526;SDS011;4301;48.362;8.478;2023-05-07T04:16:58;3.70;;;2.73;;
8526;SDS011;4301;48.362;8.478;2023-05-07T04:19:25;3.83;;;3.30;;
8526;SDS011;4301;48.362;8.478;2023-05-07T04:21:52;3.33;;;3.03;;
8526;SDS011;4301;48.362;8.478;2023-05-07T04:24:19;3.20;;;2.80;;
8526;SDS011;4301;48.362;8.478;2023-05-07T04:26:45;3.50;;;3.20;;
8526;SDS011;4301;48.362;8.478;2023-05-07T04:29:12;3.33;;;3.03;;
8526;SDS011;4301;48.362;8.478;2023-05-07T04:31:41;3.33;;;2.90;;
8526;SDS011;4301;48.362;8.478;2023-05-07T04:34:09;3.43;;;2.67;;
8526;SDS011;4301;48.362;8.478;2023-05-07T04:36:36;2.53;;;2.40;;
8526;SDS011;4301;48.362;8.478;2023-05-07T04:39:03;2.77;;;2.57;;
8526;SDS011;4301;48.362;8.478;2023-05-07T04:41:31;3.07;;;2.87;;
8526;SDS011;4301;48.362;8.478;2023-05-07T04:43:58;5.00;;;2.67;;
8526;SDS011;4301;48.362;8.478;2023-05-07T04:46:25;4.53;;;2.77;;
8526;SDS011;4301;48.362;8.478;2023-05-07T04:48:53;3.27;;;2.90;;
8526;SDS011;4301;48.362;8.478;2023-05-07T04:51:20;3.47;;;3.17;;
8526;SDS011;4301;48.362;8.478;2023-05-07T04:53:48;3.20;;;2.90;;
8526;SDS011;4301;48.362;8.478;2023-05-07T04:56:15;4.33;;;3.53;;
8526;SDS011;4301;48.362;8.478;2023-05-07T04:58:42;3.80;;;3.50;;
8526;SDS011;4301;48.362;8.478;2023-05-07T05:01:09;3.97;;;3.50;;
8526;SDS011;4301;48.362;8.478;2023-05-07T05:03:36;4.93;;;3.73;;
8526;SDS011;4301;48.362;8.478;2023-05-07T05:06:05;4.00;;;3.60;;
8526;SDS011;4301;48.362;8.478;2023-05-07T05:08:32;4.10;;;3.40;;
8526;SDS011;4301;48.362;8.478;2023-05-07T05:11:00;4.03;;;3.60;;
8526;SDS011;4301;48.362;8.478;2023-05-07T05:13:27;3.10;;;2.80;;
8526;SDS011;4301;48.362;8.478;2023-05-07T05:15:55;2.70;;;2.50;;
8526;SDS011;4301;48.362;8.478;2023-05-07T05:18:22;3.60;;;2.73;;
8526;SDS011;4301;48.362;8.478;2023-05-07T05:20:49;3.03;;;2.83;;
8526;SDS011;4301;48.362;8.478;2023-05-07T05:23:19;3.13;;;2.80;;
8526;SDS011;4301;48.362;8.478;2023-05-07T05:25:46;3.87;;;3.10;;
8526;SDS011;4301;48.362;8.478;2023-05-07T05:28:13;3.67;;;2.70;;
8526;SDS011;4301;48.362;8.478;2023-05-07T05:30:39;3.92;;;3.53;;
8526;SDS011;4301;48.362;8.478;2023-05-07T05:33:06;4.60;;;3.30;;
8526;SDS011;4301;48.362;8.478;2023-05-07T05:35:33;3.03;;;2.83;;
8526;SDS011;4301;48.362;8.478;2023-05-07T05:38:01;3.13;;;2.93;;
8526;SDS011;4301;48.362;8.478;2023-05-07T05:40:29;3.30;;;3.00;;
8526;SDS011;4301;48.362;8.478;2023-05-07T05:42:57;4.13;;;3.40;;
8526;SDS011;4301;48.362;8.478;2023-05-07T05:45:24;5.27;;;3.57;;
8526;SDS011;4301;48.362;8.478;2023-05-07T05:47:51;3.13;;;2.90;;
8526;SDS011;4301;48.362;8.478;2023-05-07T05:50:18;3.60;;;3.30;;
8526;SDS011;4301;48.362;8.478;2023-05-07T05:52:45;3.83;;;3.27;;
8526;SDS011;4301;48.362;8.478;2023-05-07T05:55:12;3.60;;;3.30;;
8526;SDS011;4301;48.362;8.478;2023-05-07T05:57:40;3.23;;;3.03;;
8526;SDS011;4301;48.362;8.478;2023-05-07T06:00:08;3.37;;;3.07;;
8526;SDS011;4301;48.362;8.478;2023-05-07T06:02:35;5.07;;;3.30;;
8526;SDS011;4301;48.362;8.478;2023-05-07T06:05:02;3.40;;;3.10;;
8526;SDS011;4301;48.362;8.478;2023-05-07T06:07:30;3.27;;;2.97;;
8526;SDS011;4301;48.362;8.478;2023-05-07T06:09:57;3.13;;;2.93;;
8526;SDS011;4301;48.362;8.478;2023-05-07T06:12:24;3.50;;;3.20;;
8526;SDS011;4301;48.362;8.478;2023-05-07T06:14:52;3.23;;;2.97;;
8526;SDS011;4301;48.362;8.478;2023-05-07T06:17:19;5.83;;;3.40;;
8526;SDS011;4301;48.362;8.478;2023-05-07T06:19:46;3.10;;;2.90;;
8526;SDS011;4301;48.362;8.478;2023-05-07T06:22:13;3.30;;;3.00;;
8526;SDS011;4301;48.362;8.478;2023-05-07T06:24:40;2.77;;;2.57;;
8526;SDS011;4301;48.362;8.478;2023-05-07T06:27:06;3.50;;;3.03;;
8526;SDS011;4301;48.362;8.478;2023-05-07T06:29:33;3.77;;;3.17;;
8526;SDS011;4301;48.362;8.478;2023-05-07T06:32:08;4.40;;;3.10;;
8526;SDS011;4301;48.362;8.478;2023-05-07T06:34:35;3.30;;;3.00;;
8526;SDS011;4301;48.362;8.478;2023-05-07T06:37:02;4.13;;;2.93;;
8526;SDS011;4301;48.362;8.478;2023-05-07T06:39:30;3.40;;;3.10;;
8526;SDS011;4301;48.362;8.478;2023-05-07T06:41:57;3.50;;;3.20;;
8526;SDS011;4301;48.362;8.478;2023-05-07T06:44:24;3.50;;;3.20;;
8526;SDS011;4301;48.362;8.478;2023-05-07T06:46:50;3.37;;;3.07;;
8526;SDS011;4301;48.362;8.478;2023-05-07T06:49:19;3.00;;;2.80;;
8526;SDS011;4301;48.362;8.478;2023-05-07T06:51:46;3.50;;;2.90;;
8526;SDS011;4301;48.362;8.478;2023-05-07T06:54:13;3.27;;;2.97;;
8526;SDS011;4301;48.362;8.478;2023-05-07T06:56:40;2.70;;;2.50;;
8526;SDS011;4301;48.362;8.478;2023-05-07T06:59:07;2.80;;;2.60;;
8526;SDS011;4301;48.362;8.478;2023-05-07T07:01:34;3.07;;;2.80;;
8526;SDS011;4301;48.362;8.478;2023-05-07T07:04:01;2.80;;;2.60;;
8526;SDS011;4301;48.362;8.478;2023-05-07T07:06:29;2.90;;;2.70;;
8526;SDS011;4301;48.362;8.478;2023-05-07T07:08:57;2.83;;;2.63;;
8526;SDS011;4301;48.362;8.478;2023-05-07T07:11:24;3.60;;;3.30;;
8526;SDS011;4301;48.362;8.478;2023-05-07T07:13:51;3.17;;;2.90;;
8526;SDS011;4301;48.362;8.478;2023-05-07T07:16:19;3.40;;;3.10;;
8526;SDS011;4301;48.362;8.478;2023-05-07T07:18:46;3.70;;;3.40;;
8526;SDS011;4301;48.362;8.478;2023-05-07T07:21:13;4.40;;;4.00;;
8526;SDS011;4301;48.362;8.478;2023-05-07T07:23:41;4.47;;;3.80;;
8526;SDS011;4301;48.362;8.478;2023-05-07T07:26:08;5.20;;;3.93;;
8526;SDS011;4301;48.362;8.478;2023-05-07T07:28:36;4.97;;;3.87;;
8526;SDS011;4301;48.362;8.478;2023-05-07T07:31:08;4.30;;;3.90;;
8526;SDS011;4301;48.362;8.478;2023-05-07T07:33:36;4.33;;;3.93;;
8526;SDS011;4301;48.362;8.478;2023-05-07T07:36:03;4.63;;;3.60;;
8526;SDS011;4301;48.362;8.478;2023-05-07T07:38:31;3.93;;;3.63;;
8526;SDS011;4301;48.362;8.478;2023-05-07T07:40:59;5.13;;;3.67;;
8526;SDS011;4301;48.362;8.478;2023-05-07T07:43:26;7.23;;;3.87;;
8526;SDS011;4301;48.362;8.478;2023-05-07T07:45:53;4.90;;;3.70;;
8526;SDS011;4301;48.362;8.478;2023-05-07T07:48:20;5.03;;;3.47;;
8526;SDS011;4301;48.362;8.478;2023-05-07T07:50:48;3.57;;;3.37;;
8526;SDS011;4301;48.362;8.478;2023-05-07T07:53:16;3.70;;;3.40;;
8526;SDS011;4301;48.362;8.478;2023-05-07T07:55:43;3.40;;;3.20;;
8526;SDS011;4301;48.362;8.478;2023-05-07T07:58:11;4.57;;;3.70;;
8526;SDS011;4301;48.362;8.478;2023-05-07T08:00:38;4.70;;;3.43;;
8526;SDS011;4301;48.362;8.478;2023-05-07T08:03:05;4.10;;;3.17;;
8526;SDS011;4301;48.362;8.478;2023-05-07T08:05:32;3.73;;;3.43;;
8526;SDS011;4301;48.362;8.478;2023-05-07T08:07:59;3.37;;;3.10;;
8526;SDS011;4301;48.362;8.478;2023-05-07T08:10:26;3.72;;;2.90;;
8526;SDS011;4301;48.362;8.478;2023-05-07T08:12:54;6.20;;;3.42;;
8526;SDS011;4301;48.362;8.478;2023-05-07T08:15:22;3.65;;;3.15;;
8526;SDS011;4301;48.362;8.478;2023-05-07T08:17:49;4.18;;;3.50;;
8526;SDS011;4301;48.362;8.478;2023-05-07T08:20:16;3.28;;;2.75;;
8526;SDS011;4301;48.362;8.478;2023-05-07T08:22:43;3.40;;;3.10;;
8526;SDS011;4301;48.362;8.478;2023-05-07T08:25:10;4.45;;;3.40;;
8526;SDS011;4301;48.362;8.478;2023-05-07T08:27:37;4.22;;;3.20;;
8526;SDS011;4301;48.362;8.478;2023-05-07T08:30:04;3.20;;;3.00;;
8526;SDS011;4301;48.362;8.478;2023-05-07T08:32:34;3.15;;;2.95;;
8526;SDS011;4301;48.362;8.478;2023-05-07T08:35:00;2.58;;;2.47;;
8526;SDS011;4301;48.362;8.478;2023-05-07T08:37:27;2.92;;;2.72;;
8526;SDS011;4301;48.362;8.478;2023-05-07T08:39:54;2.75;;;2.30;;
8526;SDS011;4301;48.362;8.478;2023-05-07T08:42:22;2.55;;;2.45;;
8526;SDS011;4301;48.362;8.478;2023-05-07T08:44:50;3.17;;;2.85;;
8526;SDS011;4301;48.362;8.478;2023-05-07T08:47:19;6.43;;;2.80;;
8526;SDS011;4301;48.362;8.478;2023-05-07T08:49:50;5.63;;;2.92;;
8526;SDS011;4301;48.362;8.478;2023-05-07T08:52:18;3.03;;;2.83;;
8526;SDS011;4301;48.362;8.478;2023-05-07T08:54:45;2.78;;;2.58;;
8526;SDS011;4301;48.362;8.478;2023-05-07T08:57:12;3.20;;;2.90;;
8526;SDS011;4301;48.362;8.478;2023-05-07T08:59:39;3.30;;;3.00;;
8526;SDS011;4301;48.362;8.478;2023-05-07T09:02:07;3.83;;;2.72;;
8526;SDS011;4301;48.362;8.478;2023-05-07T09:04:36;3.00;;;2.80;;
8526;SDS011;4301;48.362;8.478;2023-05-07T09:07:05;2.67;;;2.55;;
8526;SDS011;4301;48.362;8.478;2023-05-07T09:09:32;2.63;;;2.47;;
8526;SDS011;4301;48.362;8.478;2023-05-07T09:11:59;2.55;;;2.35;;
8526;SDS011;4301;48.362;8.478;2023-05-07T09:14:27;2.95;;;2.67;;
8526;SDS011;4301;48.362;8.478;2023-05-07T09:16:54;3.28;;;2.65;;
8526;SDS011;4301;48.362;8.478;2023-05-07T09:19:22;2.42;;;2.33;;
8526;SDS011;4301;48.362;8.478;2023-05-07T09:21:49;2.53;;;2.33;;
8526;SDS011;4301;48.362;8.478;2023-05-07T09:24:24;2.22;;;2.13;;
8526;SDS011;4301;48.362;8.478;2023-05-07T09:26:53;2.30;;;2.20;;
8526;SDS011;4301;48.362;8.478;2023-05-07T09:29:21;2.35;;;2.22;;
8526;SDS011;4301;48.362;8.478;2023-05-07T09:31:48;2.30;;;2.10;;
8526;SDS011;4301;48.362;8.478;2023-05-07T09:34:15;3.60;;;2.50;;
8526;SDS011;4301;48.362;8.478;2023-05-07T09:36:42;3.50;;;2.40;;
8526;SDS011;4301;48.362;8.478;2023-05-07T09:39:09;2.40;;;2.30;;
8526;SDS011;4301;48.362;8.478;2023-05-07T09:41:44;2.50;;;2.30;;
8526;SDS011;4301;48.362;8.478;2023-05-07T09:44:12;2.20;;;2.10;;
8526;SDS011;4301;48.362;8.478;2023-05-07T09:46:42;2.13;;;2.00;;
8526;SDS011;4301;48.362;8.478;2023-05-07T09:49:11;2.00;;;1.90;;
8526;SDS011;4301;48.362;8.478;2023-05-07T09:51:50;2.30;;;2.13;;
8526;SDS011;4301;48.362;8.478;2023-05-07T09:54:18;2.53;;;2.35;;
8526;SDS011;4301;48.362;8.478;2023-05-07T09:56:46;2.50;;;2.40;;
8526;SDS011;4301;48.362;8.478;2023-05-07T09:59:15;2.30;;;2.20;;
8526;SDS011;4301;48.362;8.478;2023-05-07T10:01:43;2.53;;;2.33;;
8526;SDS011;4301;48.362;8.478;2023-05-07T10:04:11;2.42;;;2.33;;
8526;SDS011;4301;48.362;8.478;2023-05-07T10:06:38;2.60;;;2.40;;
8526;SDS011;4301;48.362;8.478;2023-05-07T10:09:07;2.60;;;2.40;;
8526;SDS011;4301;48.362;8.478;2023-05-07T10:11:35;3.00;;;2.80;;
8526;SDS011;4301;48.362;8.478;2023-05-07T10:14:03;4.70;;;2.80;;
8526;SDS011;4301;48.362;8.478;2023-05-07T10:16:32;2.72;;;2.53;;
8526;SDS011;4301;48.362;8.478;2023-05-07T10:19:02;2.80;;;2.58;;
8526;SDS011;4301;48.362;8.478;2023-05-07T10:21:29;2.70;;;2.50;;
8526;SDS011;4301;48.362;8.478;2023-05-07T10:23:58;2.42;;;2.33;;
8526;SDS011;4301;48.362;8.478;2023-05-07T10:26:26;3.65;;;2.63;;
8526;SDS011;4301;48.362;8.478;2023-05-07T10:28:56;2.95;;;2.75;;
8526;SDS011;4301;48.362;8.478;2023-05-07T10:31:50;2.60;;;2.40;;
8526;SDS011;4301;48.362;8.478;2023-05-07T10:34:24;2.80;;;2.60;;
8526;SDS011;4301;48.362;8.478;2023-05-07T10:36:54;3.10;;;2.90;;
8526;SDS011;4301;48.362;8.478;2023-05-07T10:39:22;3.10;;;2.83;;
8526;SDS011;4301;48.362;8.478;2023-05-07T10:41:50;2.42;;;2.33;;
8526;SDS011;4301;48.362;8.478;2023-05-07T10:44:26;2.97;;;2.70;;
8526;SDS011;4301;48.362;8.478;2023-05-07T10:47:08;2.85;;;2.65;;
8526;SDS011;4301;48.362;8.478;2023-05-07T10:49:36;3.33;;;2.50;;
8526;SDS011;4301;48.362;8.478;2023-05-07T10:52:23;2.88;;;2.70;;
8526;SDS011;4301;48.362;8.478;2023-05-07T10:55:19;3.65;;;3.35;;
8526;SDS011;4301;48.362;8.478;2023-05-07T10:57:50;3.00;;;2.67;;
8526;SDS011;4301;48.362;8.478;2023-05-07T11:03:11;2.53;;;2.42;;
8526;SDS011;4301;48.362;8.478;2023-05-07T11:05:39;2.60;;;2.40;;
8526;SDS011;4301;48.362;8.478;2023-05-07T11:08:07;3.92;;;2.35;;
8526;SDS011;4301;48.362;8.478;2023-05-07T11:10:50;2.83;;;2.63;;
8526;SDS011;4301;48.362;8.478;2023-05-07T11:13:18;2.65;;;2.45;;
8526;SDS011;4301;48.362;8.478;2023-05-07T11:16:16;2.78;;;2.58;;
8526;SDS011;4301;48.362;8.478;2023-05-07T11:18:48;3.10;;;2.78;;
8526;SDS011;4301;48.362;8.478;2023-05-07T11:21:32;2.60;;;2.40;;
8526;SDS011;4301;48.362;8.478;2023-05-07T11:24:01;2.55;;;2.35;;
8526;SDS011;4301;48.362;8.478;2023-05-07T11:26:29;2.55;;;2.38;;
8526;SDS011;4301;48.362;8.478;2023-05-07T11:28:57;2.38;;;2.25;;
8526;SDS011;4301;48.362;8.478;2023-05-07T11:31:26;2.60;;;2.40;;
8526;SDS011;4301;48.362;8.478;2023-05-07T11:33:56;2.72;;;2.50;;
8526;SDS011;4301;48.362;8.478;2023-05-07T11:36:24;2.40;;;2.30;;
8526;SDS011;4301;48.362;8.478;2023-05-07T11:38:51;2.35;;;2.15;;
8526;SDS011;4301;48.362;8.478;2023-05-07T11:41:19;3.15;;;2.35;;
8526;SDS011;4301;48.362;8.478;2023-05-07T11:43:53;2.40;;;2.22;;
8526;SDS011;4301;48.362;8.478;2023-05-07T11:46:21;7.45;;;5.03;;
8526;SDS011;4301;48.362;8.478;2023-05-07T11:48:48;6.50;;;5.28;;
8526;SDS011;4301;48.362;8.478;2023-05-07T11:51:19;9.00;;;4.60;;
8526;SDS011;4301;48.362;8.478;2023-05-07T11:53:47;11.20;;;4.03;;
8526;SDS011;4301;48.362;8.478;2023-05-07T11:56:15;4.87;;;3.97;;
8526;SDS011;4301;48.362;8.478;2023-05-07T11:58:43;4.80;;;3.37;;
8526;SDS011;4301;48.362;8.478;2023-05-07T12:01:12;3.83;;;3.50;;
8526;SDS011;4301;48.362;8.478;2023-05-07T12:03:40;3.70;;;3.40;;
8526;SDS011;4301;48.362;8.478;2023-05-07T12:06:09;4.33;;;3.90;;
8526;SDS011;4301;48.362;8.478;2023-05-07T12:08:39;6.37;;;4.10;;
8526;SDS011;4301;48.362;8.478;2023-05-07T12:11:07;4.90;;;4.50;;
8526;SDS011;4301;48.362;8.478;2023-05-07T12:13:36;5.83;;;4.30;;
8526;SDS011;4301;48.362;8.478;2023-05-07T12:16:04;4.70;;;4.30;;
8526;SDS011;4301;48.362;8.478;2023-05-07T12:18:32;3.90;;;3.60;;
8526;SDS011;4301;48.362;8.478;2023-05-07T12:21:00;4.23;;;3.83;;
8526;SDS011;4301;48.362;8.478;2023-05-07T12:23:28;5.83;;;3.57;;
8526;SDS011;4301;48.362;8.478;2023-05-07T12:25:56;3.73;;;3.30;;
8526;SDS011;4301;48.362;8.478;2023-05-07T12:28:23;4.40;;;4.00;;
8526;SDS011;4301;48.362;8.478;2023-05-07T12:30:50;5.47;;;3.40;;
8526;SDS011;4301;48.362;8.478;2023-05-07T12:33:18;3.83;;;3.50;;
8526;SDS011;4301;48.362;8.478;2023-05-07T12:35:49;4.63;;;3.43;;
8526;SDS011;4301;48.362;8.478;2023-05-07T12:38:17;4.63;;;3.60;;
8526;SDS011;4301;48.362;8.478;2023-05-07T12:40:44;4.60;;;3.53;;
8526;SDS011;4301;48.362;8.478;2023-05-07T12:43:17;4.23;;;3.83;;
8526;SDS011;4301;48.362;8.478;2023-05-07T12:45:44;3.67;;;3.37;;
8526;SDS011;4301;48.362;8.478;2023-05-07T12:48:12;3.87;;;3.57;;
8526;SDS011;4301;48.362;8.478;2023-05-07T12:50:40;4.60;;;3.53;;
8526;SDS011;4301;48.362;8.478;2023-05-07T12:53:07;6.13;;;3.93;;
8526;SDS011;4301;48.362;8.478;2023-05-07T12:55:42;4.43;;;4.10;;
8526;SDS011;4301;48.362;8.478;2023-05-07T12:58:24;4.10;;;3.80;;
8526;SDS011;4301;48.362;8.478;2023-05-07T13:00:52;5.27;;;4.00;;
8526;SDS011;4301;48.362;8.478;2023-05-07T13:03:23;5.03;;;4.57;;
8526;SDS011;4301;48.362;8.478;2023-05-07T13:05:52;6.17;;;4.53;;
8526;SDS011;4301;48.362;8.478;2023-05-07T13:08:23;9.47;;;6.10;;
8526;SDS011;4301;48.362;8.478;2023-05-07T13:10:55;6.83;;;4.87;;
8526;SDS011;4301;48.362;8.478;2023-05-07T13:13:24;4.70;;;3.90;;
8526;SDS011;4301;48.362;8.478;2023-05-07T13:15:51;4.40;;;3.30;;
8526;SDS011;4301;48.362;8.478;2023-05-07T13:18:18;3.43;;;3.20;;
8526;SDS011;4301;48.362;8.478;2023-05-07T13:20:44;3.23;;;2.77;;
8526;SDS011;4301;48.362;8.478;2023-05-07T13:23:11;3.83;;;3.50;;
8526;SDS011;4301;48.362;8.478;2023-05-07T13:25:38;4.10;;;3.70;;
8526;SDS011;4301;48.362;8.478;2023-05-07T13:28:06;3.23;;;2.97;;
8526;SDS011;4301;48.362;8.478;2023-05-07T13:30:34;3.93;;;3.07;;
8526;SDS011;4301;48.362;8.478;2023-05-07T13:33:01;3.73;;;2.90;;
8526;SDS011;4301;48.362;8.478;2023-05-07T13:35:28;6.40;;;3.03;;
8526;SDS011;4301;48.362;8.478;2023-05-07T13:37:55;5.03;;;2.93;;
8526;SDS011;4301;48.362;8.478;2023-05-07T13:40:22;3.17;;;2.97;;
8526;SDS011;4301;48.362;8.478;2023-05-07T13:42:50;2.83;;;2.63;;
8526;SDS011;4301;48.362;8.478;2023-05-07T13:45:17;2.93;;;2.70;;
8526;SDS011;4301;48.362;8.478;2023-05-07T13:47:46;3.00;;;2.80;;
8526;SDS011;4301;48.362;8.478;2023-05-07T13:50:14;3.10;;;2.80;;
8526;SDS011;4301;48.362;8.478;2023-05-07T13:52:42;12.80;;;9.60;;
8526;SDS011;4301;48.362;8.478;2023-05-07T13:55:15;17.00;;;14.40;;
8526;SDS011;4301;48.362;8.478;2023-05-07T13:57:42;5.17;;;4.77;;
8526;SDS011;4301;48.362;8.478;2023-05-07T14:00:10;2.90;;;2.70;;
8526;SDS011;4301;48.362;8.478;2023-05-07T14:02:37;2.60;;;2.40;;
8526;SDS011;4301;48.362;8.478;2023-05-07T14:05:06;3.90;;;3.10;;
8526;SDS011;4301;48.362;8.478;2023-05-07T14:07:34;2.10;;;1.90;;
8526;SDS011;4301;48.362;8.478;2023-05-07T14:10:02;3.13;;;2.27;;
8526;SDS011;4301;48.362;8.478;2023-05-07T14:12:29;2.70;;;2.50;;
8526;SDS011;4301;48.362;8.478;2023-05-07T14:14:56;2.27;;;2.17;;
8526;SDS011;4301;48.362;8.478;2023-05-07T14:17:23;2.80;;;2.50;;
8526;SDS011;4301;48.362;8.478;2023-05-07T14:19:51;3.50;;;2.30;;
8526;SDS011;4301;48.362;8.478;2023-05-07T14:22:20;3.67;;;2.87;;
8526;SDS011;4301;48.362;8.478;2023-05-07T14:24:47;2.40;;;2.20;;
8526;SDS011;4301;48.362;8.478;2023-05-07T14:27:14;2.20;;;1.90;;
8526;SDS011;4301;48.362;8.478;2023-05-07T14:29:41;3.67;;;2.50;;
8526;SDS011;4301;48.362;8.478;2023-05-07T14:32:10;3.20;;;2.10;;
8526;SDS011;4301;48.362;8.478;2023-05-07T14:34:37;2.40;;;2.20;;
8526;SDS011;4301;48.362;8.478;2023-05-07T14:37:04;2.00;;;1.90;;
8526;SDS011;4301;48.362;8.478;2023-05-07T14:39:32;1.87;;;1.77;;
8526;SDS011;4301;48.362;8.478;2023-05-07T14:41:59;4.20;;;2.33;;
8526;SDS011;4301;48.362;8.478;2023-05-07T14:44:26;2.10;;;2.00;;
8526;SDS011;4301;48.362;8.478;2023-05-07T14:46:53;1.40;;;1.40;;
8526;SDS011;4301;48.362;8.478;2023-05-07T14:49:20;1.40;;;1.30;;
8526;SDS011;4301;48.362;8.478;2023-05-07T14:51:47;1.97;;;1.83;;
8526;SDS011;4301;48.362;8.478;2023-05-07T14:54:14;1.70;;;1.60;;
8526;SDS011;4301;48.362;8.478;2023-05-07T14:56:42;1.73;;;1.63;;
8526;SDS011;4301;48.362;8.478;2023-05-07T14:59:09;2.53;;;1.53;;
8526;SDS011;4301;48.362;8.478;2023-05-07T15:01:37;1.60;;;1.50;;
8526;SDS011;4301;48.362;8.478;2023-05-07T15:04:05;1.30;;;1.30;;
8526;SDS011;4301;48.362;8.478;2023-05-07T15:06:32;1.50;;;1.50;;
8526;SDS011;4301;48.362;8.478;2023-05-07T15:08:59;1.77;;;1.67;;
8526;SDS011;4301;48.362;8.478;2023-05-07T15:11:26;1.50;;;1.50;;
8526;SDS011;4301;48.362;8.478;2023-05-07T15:13:54;1.70;;;1.60;;
8526;SDS011;4301;48.362;8.478;2023-05-07T15:16:21;1.80;;;1.70;;
8526;SDS011;4301;48.362;8.478;2023-05-07T15:18:48;1.83;;;1.50;;
8526;SDS011;4301;48.362;8.478;2023-05-07T15:21:15;2.20;;;1.57;;
8526;SDS011;4301;48.362;8.478;2023-05-07T15:23:42;1.50;;;1.50;;